sensor_id;sensor_type;location;lat;lon;timestamp;P1;durP1;ratioP1;P2;durP2;ratioP2
60641;SDS011;46837;52.446;-1.930;2024-03-02T00:00:11;6.02;;;2.30;;
60641;SDS011;46837;52.446;-1.930;2024-03-02T00:01:07;5.86;;;2.36;;
60641;SDS011;46837;52.446;-1.930;2024-03-02T00:02:07;7.54;;;2.14;;
60641;SDS011;46837;52.446;-1.930;2024-03-02T00:03:07;4.18;;;2.34;;
60641;SDS011;46837;52.446;-1.930;2024-03-02T00:04:07;6.52;;;3.06;;
60641;SDS011;46837;52.446;-1.930;2024-03-02T00:05:07;2.62;;;2.04;;
60641;SDS011;46837;52.446;-1.930;2024-03-02T00:06:07;10.52;;;2.92;;
60641;SDS011;46837;52.446;-1.930;2024-03-02T00:07:07;7.26;;;3.82;;
60641;SDS011;46837;52.446;-1.930;2024-03-02T00:08:07;7.78;;;2.78;;
60641;SDS011;46837;52.446;-1.930;2024-03-02T00:09:07;6.42;;;2.82;;
60641;SDS011;46837;52.446;-1.930;2024-03-02T00:10:10;8.44;;;2.82;;
60641;SDS011;46837;52.446;-1.930;2024-03-02T00:11:07;5.16;;;2.96;;
60641;SDS011;46837;52.446;-1.930;2024-03-02T00:12:07;7.48;;;2.96;;
60641;SDS011;46837;52.446;-1.930;2024-03-02T00:13:07;8.04;;;3.68;;
60641;SDS011;46837;52.446;-1.930;2024-03-02T00:14:07;8.16;;;2.80;;
60641;SDS011;46837;52.446;-1.930;2024-03-02T00:15:18;8.36;;;2.66;;
60641;SDS011;46837;52.446;-1.930;2024-03-02T00:16:07;4.60;;;2.96;;
60641;SDS011;46837;52.446;-1.930;2024-03-02T00:17:08;7.86;;;2.84;;
60641;SDS011;46837;52.446;-1.930;2024-03-02T00:18:07;10.70;;;2.92;;
60641;SDS011;46837;52.446;-1.930;2024-03-02T00:19:07;5.22;;;2.80;;
60641;SDS011;46837;52.446;-1.930;2024-03-02T00:20:08;10.38;;;3.26;;
60641;SDS011;46837;52.446;-1.930;2024-03-02T00:21:07;7.06;;;2.56;;
60641;SDS011;46837;52.446;-1.930;2024-03-02T00:22:07;13.12;;;4.10;;
60641;SDS011;46837;52.446;-1.930;2024-03-02T00:23:07;6.46;;;2.94;;
60641;SDS011;46837;52.446;-1.930;2024-03-02T00:24:12;11.84;;;3.02;;
60641;SDS011;46837;52.446;-1.930;2024-03-02T00:25:07;5.38;;;2.56;;
60641;SDS011;46837;52.446;-1.930;2024-03-02T00:26:07;8.12;;;2.84;;
60641;SDS011;46837;52.446;-1.930;2024-03-02T00:27:07;12.18;;;2.68;;
60641;SDS011;46837;52.446;-1.930;2024-03-02T00:29:07;5.72;;;3.68;;
60641;SDS011;46837;52.446;-1.930;2024-03-02T00:31:07;5.16;;;2.38;;
60641;SDS011;46837;52.446;-1.930;2024-03-02T00:33:07;8.92;;;2.86;;
60641;SDS011;46837;52.446;-1.930;2024-03-02T00:34:07;8.12;;;2.52;;
60641;SDS011;46837;52.446;-1.930;2024-03-02T00:35:07;9.22;;;3.32;;
60641;SDS011;46837;52.446;-1.930;2024-03-02T00:36:07;7.04;;;2.90;;
60641;SDS011;46837;52.446;-1.930;2024-03-02T00:37:07;6.38;;;3.24;;
60641;SDS011;46837;52.446;-1.930;2024-03-02T00:38:07;7.48;;;3.34;;
60641;SDS011;46837;52.446;-1.930;2024-03-02T00:39:08;4.20;;;2.46;;
60641;SDS011;46837;52.446;-1.930;2024-03-02T00:40:07;5.72;;;2.38;;
60641;SDS011;46837;52.446;-1.930;2024-03-02T00:41:07;3.42;;;2.58;;
60641;SDS011;46837;52.446;-1.930;2024-03-02T00:42:07;12.68;;;3.34;;
60641;SDS011;46837;52.446;-1.930;2024-03-02T00:43:09;9.46;;;2.80;;
60641;SDS011;46837;52.446;-1.930;2024-03-02T00:44:07;4.74;;;2.12;;
60641;SDS011;46837;52.446;-1.930;2024-03-02T00:45:07;5.38;;;3.44;;
60641;SDS011;46837;52.446;-1.930;2024-03-02T00:46:07;7.24;;;3.44;;
60641;SDS011;46837;52.446;-1.930;2024-03-02T00:47:07;7.76;;;2.64;;
60641;SDS011;46837;52.446;-1.930;2024-03-02T00:48:07;5.64;;;3.22;;
60641;SDS011;46837;52.446;-1.930;2024-03-02T00:50:07;9.58;;;2.44;;
60641;SDS011;46837;52.446;-1.930;2024-03-02T00:51:07;8.72;;;2.88;;
60641;SDS011;46837;52.446;-1.930;2024-03-02T00:52:07;12.64;;;3.02;;
60641;SDS011;46837;52.446;-1.930;2024-03-02T00:53:09;11.50;;;3.82;;
60641;SDS011;46837;52.446;-1.930;2024-03-02T00:54:07;13.86;;;3.06;;
60641;SDS011;46837;52.446;-1.930;2024-03-02T00:55:07;23.14;;;3.18;;
60641;SDS011;46837;52.446;-1.930;2024-03-02T00:56:08;4.98;;;2.90;;
60641;SDS011;46837;52.446;-1.930;2024-03-02T00:57:08;6.36;;;3.00;;
60641;SDS011;46837;52.446;-1.930;2024-03-02T00:58:07;34.32;;;4.42;;
60641;SDS011;46837;52.446;-1.930;2024-03-02T00:59:07;10.40;;;2.82;;
60641;SDS011;46837;52.446;-1.930;2024-03-02T01:00:09;13.96;;;3.18;;
60641;SDS011;46837;52.446;-1.930;2024-03-02T01:01:07;7.98;;;2.86;;
60641;SDS011;46837;52.446;-1.930;2024-03-02T01:02:07;6.88;;;4.68;;
60641;SDS011;46837;52.446;-1.930;2024-03-02T01:03:07;10.00;;;2.78;;
60641;SDS011;46837;52.446;-1.930;2024-03-02T01:04:07;5.94;;;2.76;;
60641;SDS011;46837;52.446;-1.930;2024-03-02T01:05:07;7.34;;;2.92;;
60641;SDS011;46837;52.446;-1.930;2024-03-02T01:06:07;6.20;;;2.86;;
60641;SDS011;46837;52.446;-1.930;2024-03-02T01:07:07;10.78;;;2.74;;
60641;SDS011;46837;52.446;-1.930;2024-03-02T01:08:07;14.32;;;2.40;;
60641;SDS011;46837;52.446;-1.930;2024-03-02T01:09:07;8.84;;;2.76;;
60641;SDS011;46837;52.446;-1.930;2024-03-02T01:10:07;9.18;;;2.50;;
60641;SDS011;46837;52.446;-1.930;2024-03-02T01:11:07;8.92;;;2.64;;
60641;SDS011;46837;52.446;-1.930;2024-03-02T01:12:07;8.30;;;2.36;;
60641;SDS011;46837;52.446;-1.930;2024-03-02T01:13:07;9.04;;;3.44;;
60641;SDS011;46837;52.446;-1.930;2024-03-02T01:14:07;4.96;;;3.10;;
60641;SDS011;46837;52.446;-1.930;2024-03-02T01:15:08;7.14;;;2.50;;
60641;SDS011;46837;52.446;-1.930;2024-03-02T01:16:07;8.04;;;2.44;;
60641;SDS011;46837;52.446;-1.930;2024-03-02T01:17:07;8.16;;;2.88;;
60641;SDS011;46837;52.446;-1.930;2024-03-02T01:18:07;10.84;;;2.60;;
60641;SDS011;46837;52.446;-1.930;2024-03-02T01:19:07;7.38;;;2.38;;
60641;SDS011;46837;52.446;-1.930;2024-03-02T01:20:07;6.96;;;2.56;;
60641;SDS011;46837;52.446;-1.930;2024-03-02T01:21:07;4.14;;;2.30;;
60641;SDS011;46837;52.446;-1.930;2024-03-02T01:22:07;5.12;;;2.74;;
60641;SDS011;46837;52.446;-1.930;2024-03-02T01:23:07;6.16;;;2.16;;
60641;SDS011;46837;52.446;-1.930;2024-03-02T01:24:07;7.02;;;3.10;;
60641;SDS011;46837;52.446;-1.930;2024-03-02T01:25:08;12.88;;;2.80;;
60641;SDS011;46837;52.446;-1.930;2024-03-02T01:26:07;7.94;;;3.18;;
60641;SDS011;46837;52.446;-1.930;2024-03-02T01:27:07;14.96;;;3.24;;
60641;SDS011;46837;52.446;-1.930;2024-03-02T01:28:07;10.10;;;2.72;;
60641;SDS011;46837;52.446;-1.930;2024-03-02T01:29:07;10.02;;;3.14;;
60641;SDS011;46837;52.446;-1.930;2024-03-02T01:30:07;9.86;;;2.36;;
60641;SDS011;46837;52.446;-1.930;2024-03-02T01:31:07;11.68;;;3.20;;
60641;SDS011;46837;52.446;-1.930;2024-03-02T01:32:07;6.10;;;3.42;;
60641;SDS011;46837;52.446;-1.930;2024-03-02T01:33:07;12.72;;;3.02;;
60641;SDS011;46837;52.446;-1.930;2024-03-02T01:34:07;15.12;;;3.82;;
60641;SDS011;46837;52.446;-1.930;2024-03-02T01:35:07;6.50;;;2.76;;
60641;SDS011;46837;52.446;-1.930;2024-03-02T01:36:07;10.54;;;2.94;;
60641;SDS011;46837;52.446;-1.930;2024-03-02T01:37:07;4.94;;;2.66;;
60641;SDS011;46837;52.446;-1.930;2024-03-02T01:38:09;11.32;;;3.54;;
60641;SDS011;46837;52.446;-1.930;2024-03-02T01:39:10;8.00;;;2.26;;
60641;SDS011;46837;52.446;-1.930;2024-03-02T01:40:09;5.96;;;2.30;;
60641;SDS011;46837;52.446;-1.930;2024-03-02T01:41:07;11.58;;;3.00;;
60641;SDS011;46837;52.446;-1.930;2024-03-02T01:42:07;10.58;;;3.76;;
60641;SDS011;46837;52.446;-1.930;2024-03-02T01:43:07;6.52;;;2.50;;
60641;SDS011;46837;52.446;-1.930;2024-03-02T01:44:07;11.32;;;3.20;;
60641;SDS011;46837;52.446;-1.930;2024-03-02T01:45:07;6.40;;;2.96;;
60641;SDS011;46837;52.446;-1.930;2024-03-02T01:46:07;9.40;;;2.92;;
60641;SDS011;46837;52.446;-1.930;2024-03-02T01:47:07;8.22;;;2.72;;
60641;SDS011;46837;52.446;-1.930;2024-03-02T01:48:07;7.90;;;2.90;;
60641;SDS011;46837;52.446;-1.930;2024-03-02T01:49:07;6.78;;;2.80;;
60641;SDS011;46837;52.446;-1.930;2024-03-02T01:50:07;7.52;;;2.64;;
60641;SDS011;46837;52.446;-1.930;2024-03-02T01:51:07;11.46;;;4.26;;
60641;SDS011;46837;52.446;-1.930;2024-03-02T01:52:07;10.04;;;3.08;;
60641;SDS011;46837;52.446;-1.930;2024-03-02T01:53:07;8.30;;;3.06;;
60641;SDS011;46837;52.446;-1.930;2024-03-02T01:54:07;12.08;;;2.62;;
60641;SDS011;46837;52.446;-1.930;2024-03-02T01:55:07;3.48;;;2.18;;
60641;SDS011;46837;52.446;-1.930;2024-03-02T01:56:07;5.12;;;2.00;;
60641;SDS011;46837;52.446;-1.930;2024-03-02T01:57:07;6.12;;;3.08;;
60641;SDS011;46837;52.446;-1.930;2024-03-02T01:58:07;5.60;;;2.66;;
60641;SDS011;46837;52.446;-1.930;2024-03-02T01:59:07;6.36;;;2.40;;
60641;SDS011;46837;52.446;-1.930;2024-03-02T02:00:07;6.26;;;2.46;;
60641;SDS011;46837;52.446;-1.930;2024-03-02T02:01:07;8.88;;;3.28;;
60641;SDS011;46837;52.446;-1.930;2024-03-02T02:02:07;3.64;;;2.28;;
60641;SDS011;46837;52.446;-1.930;2024-03-02T02:03:07;7.48;;;2.96;;
60641;SDS011;46837;52.446;-1.930;2024-03-02T02:04:07;9.40;;;2.40;;
60641;SDS011;46837;52.446;-1.930;2024-03-02T02:05:07;7.86;;;2.78;;
60641;SDS011;46837;52.446;-1.930;2024-03-02T02:06:07;6.98;;;2.50;;
60641;SDS011;46837;52.446;-1.930;2024-03-02T02:07:07;3.84;;;2.62;;
60641;SDS011;46837;52.446;-1.930;2024-03-02T02:08:07;8.74;;;2.90;;
60641;SDS011;46837;52.446;-1.930;2024-03-02T02:09:07;4.40;;;2.60;;
60641;SDS011;46837;52.446;-1.930;2024-03-02T02:10:07;6.88;;;3.18;;
60641;SDS011;46837;52.446;-1.930;2024-03-02T02:11:07;7.88;;;2.50;;
60641;SDS011;46837;52.446;-1.930;2024-03-02T02:12:07;4.42;;;2.68;;
60641;SDS011;46837;52.446;-1.930;2024-03-02T02:13:07;9.02;;;3.80;;
60641;SDS011;46837;52.446;-1.930;2024-03-02T02:14:07;4.96;;;2.04;;
60641;SDS011;46837;52.446;-1.930;2024-03-02T02:16:07;4.40;;;1.96;;
60641;SDS011;46837;52.446;-1.930;2024-03-02T02:17:07;5.50;;;2.28;;
60641;SDS011;46837;52.446;-1.930;2024-03-02T02:18:07;5.02;;;2.74;;
60641;SDS011;46837;52.446;-1.930;2024-03-02T02:19:07;9.56;;;4.12;;
60641;SDS011;46837;52.446;-1.930;2024-03-02T02:20:07;5.76;;;2.36;;
60641;SDS011;46837;52.446;-1.930;2024-03-02T02:21:07;4.74;;;3.16;;
60641;SDS011;46837;52.446;-1.930;2024-03-02T02:22:07;5.20;;;2.42;;
60641;SDS011;46837;52.446;-1.930;2024-03-02T02:23:10;4.96;;;2.44;;
60641;SDS011;46837;52.446;-1.930;2024-03-02T02:24:07;8.00;;;3.08;;
60641;SDS011;46837;52.446;-1.930;2024-03-02T02:25:07;8.32;;;2.52;;
60641;SDS011;46837;52.446;-1.930;2024-03-02T02:26:07;4.20;;;2.82;;
60641;SDS011;46837;52.446;-1.930;2024-03-02T02:27:07;5.56;;;2.68;;
60641;SDS011;46837;52.446;-1.930;2024-03-02T02:28:07;7.12;;;2.62;;
60641;SDS011;46837;52.446;-1.930;2024-03-02T02:29:07;6.38;;;2.44;;
60641;SDS011;46837;52.446;-1.930;2024-03-02T02:30:07;3.24;;;2.84;;
60641;SDS011;46837;52.446;-1.930;2024-03-02T02:31:07;9.72;;;2.96;;
60641;SDS011;46837;52.446;-1.930;2024-03-02T02:32:07;5.42;;;2.88;;
60641;SDS011;46837;52.446;-1.930;2024-03-02T02:33:07;5.88;;;2.84;;
60641;SDS011;46837;52.446;-1.930;2024-03-02T02:34:07;6.92;;;3.32;;
60641;SDS011;46837;52.446;-1.930;2024-03-02T02:35:07;7.58;;;3.14;;
60641;SDS011;46837;52.446;-1.930;2024-03-02T02:36:07;4.82;;;2.86;;
60641;SDS011;46837;52.446;-1.930;2024-03-02T02:37:07;12.28;;;3.38;;
60641;SDS011;46837;52.446;-1.930;2024-03-02T02:38:07;7.90;;;4.16;;
60641;SDS011;46837;52.446;-1.930;2024-03-02T02:39:07;6.94;;;4.30;;
60641;SDS011;46837;52.446;-1.930;2024-03-02T02:40:07;6.58;;;3.46;;
60641;SDS011;46837;52.446;-1.930;2024-03-02T02:41:07;7.46;;;3.16;;
60641;SDS011;46837;52.446;-1.930;2024-03-02T02:42:07;3.92;;;3.08;;
60641;SDS011;46837;52.446;-1.930;2024-03-02T02:43:07;17.16;;;4.06;;
60641;SDS011;46837;52.446;-1.930;2024-03-02T02:44:07;5.82;;;3.76;;
60641;SDS011;46837;52.446;-1.930;2024-03-02T02:45:07;8.62;;;3.14;;
60641;SDS011;46837;52.446;-1.930;2024-03-02T02:46:07;9.48;;;3.68;;
60641;SDS011;46837;52.446;-1.930;2024-03-02T02:47:07;7.60;;;3.58;;
60641;SDS011;46837;52.446;-1.930;2024-03-02T02:48:07;7.90;;;3.32;;
60641;SDS011;46837;52.446;-1.930;2024-03-02T02:49:07;5.48;;;3.14;;
60641;SDS011;46837;52.446;-1.930;2024-03-02T02:50:07;6.74;;;3.48;;
60641;SDS011;46837;52.446;-1.930;2024-03-02T02:51:07;7.06;;;3.16;;
60641;SDS011;46837;52.446;-1.930;2024-03-02T02:52:07;10.34;;;3.90;;
60641;SDS011;46837;52.446;-1.930;2024-03-02T02:53:07;6.54;;;3.42;;
60641;SDS011;46837;52.446;-1.930;2024-03-02T02:54:07;8.12;;;3.52;;
60641;SDS011;46837;52.446;-1.930;2024-03-02T02:55:07;8.06;;;3.48;;
60641;SDS011;46837;52.446;-1.930;2024-03-02T02:56:07;9.22;;;3.54;;
60641;SDS011;46837;52.446;-1.930;2024-03-02T02:57:07;6.38;;;3.32;;
60641;SDS011;46837;52.446;-1.930;2024-03-02T02:58:07;13.36;;;3.64;;
60641;SDS011;46837;52.446;-1.930;2024-03-02T02:59:07;7.10;;;3.50;;
60641;SDS011;46837;52.446;-1.930;2024-03-02T03:00:11;8.44;;;3.44;;
60641;SDS011;46837;52.446;-1.930;2024-03-02T03:01:07;10.38;;;4.74;;
60641;SDS011;46837;52.446;-1.930;2024-03-02T03:02:07;12.20;;;4.60;;
60641;SDS011;46837;52.446;-1.930;2024-03-02T03:03:07;12.74;;;4.00;;
60641;SDS011;46837;52.446;-1.930;2024-03-02T03:04:07;16.24;;;3.82;;
60641;SDS011;46837;52.446;-1.930;2024-03-02T03:05:07;6.72;;;3.80;;
60641;SDS011;46837;52.446;-1.930;2024-03-02T03:06:07;10.36;;;4.80;;
60641;SDS011;46837;52.446;-1.930;2024-03-02T03:07:07;5.94;;;4.62;;
60641;SDS011;46837;52.446;-1.930;2024-03-02T03:08:07;9.52;;;4.40;;
60641;SDS011;46837;52.446;-1.930;2024-03-02T03:09:07;14.26;;;4.68;;
60641;SDS011;46837;52.446;-1.930;2024-03-02T03:10:07;9.94;;;4.60;;
60641;SDS011;46837;52.446;-1.930;2024-03-02T03:11:07;12.36;;;4.94;;
60641;SDS011;46837;52.446;-1.930;2024-03-02T03:12:07;6.38;;;4.34;;
60641;SDS011;46837;52.446;-1.930;2024-03-02T03:13:08;6.64;;;4.46;;
60641;SDS011;46837;52.446;-1.930;2024-03-02T03:14:07;12.90;;;4.54;;
60641;SDS011;46837;52.446;-1.930;2024-03-02T03:15:07;16.32;;;4.80;;
60641;SDS011;46837;52.446;-1.930;2024-03-02T03:16:07;9.94;;;4.56;;
60641;SDS011;46837;52.446;-1.930;2024-03-02T03:17:07;17.22;;;4.78;;
60641;SDS011;46837;52.446;-1.930;2024-03-02T03:18:07;11.32;;;4.52;;
60641;SDS011;46837;52.446;-1.930;2024-03-02T03:19:07;10.14;;;4.50;;
60641;SDS011;46837;52.446;-1.930;2024-03-02T03:20:07;6.72;;;4.34;;
60641;SDS011;46837;52.446;-1.930;2024-03-02T03:21:07;6.82;;;3.70;;
60641;SDS011;46837;52.446;-1.930;2024-03-02T03:22:07;7.72;;;4.16;;
60641;SDS011;46837;52.446;-1.930;2024-03-02T03:23:07;6.76;;;3.94;;
60641;SDS011;46837;52.446;-1.930;2024-03-02T03:24:07;9.18;;;3.90;;
60641;SDS011;46837;52.446;-1.930;2024-03-02T03:25:07;9.92;;;4.38;;
60641;SDS011;46837;52.446;-1.930;2024-03-02T03:26:07;7.18;;;4.38;;
60641;SDS011;46837;52.446;-1.930;2024-03-02T03:27:07;7.04;;;5.06;;
60641;SDS011;46837;52.446;-1.930;2024-03-02T03:28:07;5.84;;;3.68;;
60641;SDS011;46837;52.446;-1.930;2024-03-02T03:29:07;9.24;;;4.20;;
60641;SDS011;46837;52.446;-1.930;2024-03-02T03:30:07;9.16;;;4.10;;
60641;SDS011;46837;52.446;-1.930;2024-03-02T03:31:07;9.28;;;4.22;;
60641;SDS011;46837;52.446;-1.930;2024-03-02T03:32:07;13.52;;;4.64;;
60641;SDS011;46837;52.446;-1.930;2024-03-02T03:33:08;10.30;;;4.08;;
60641;SDS011;46837;52.446;-1.930;2024-03-02T03:34:07;15.00;;;4.84;;
60641;SDS011;46837;52.446;-1.930;2024-03-02T03:35:07;10.18;;;4.22;;
60641;SDS011;46837;52.446;-1.930;2024-03-02T03:36:07;6.30;;;3.52;;
60641;SDS011;46837;52.446;-1.930;2024-03-02T03:37:07;8.12;;;4.14;;
60641;SDS011;46837;52.446;-1.930;2024-03-02T03:38:07;7.00;;;4.12;;
60641;SDS011;46837;52.446;-1.930;2024-03-02T03:39:07;10.14;;;5.42;;
60641;SDS011;46837;52.446;-1.930;2024-03-02T03:40:10;10.34;;;4.56;;
60641;SDS011;46837;52.446;-1.930;2024-03-02T03:41:07;12.60;;;4.10;;
60641;SDS011;46837;52.446;-1.930;2024-03-02T03:42:07;8.04;;;4.24;;
60641;SDS011;46837;52.446;-1.930;2024-03-02T03:43:07;9.76;;;3.74;;
60641;SDS011;46837;52.446;-1.930;2024-03-02T03:44:07;9.26;;;3.84;;
60641;SDS011;46837;52.446;-1.930;2024-03-02T03:45:07;7.42;;;4.00;;
60641;SDS011;46837;52.446;-1.930;2024-03-02T03:46:07;7.54;;;4.18;;
60641;SDS011;46837;52.446;-1.930;2024-03-02T03:47:07;9.18;;;5.46;;
60641;SDS011;46837;52.446;-1.930;2024-03-02T03:48:07;7.56;;;4.20;;
60641;SDS011;46837;52.446;-1.930;2024-03-02T03:49:07;8.30;;;4.62;;
60641;SDS011;46837;52.446;-1.930;2024-03-02T03:50:08;9.46;;;5.54;;
60641;SDS011;46837;52.446;-1.930;2024-03-02T03:51:07;31.38;;;5.06;;
60641;SDS011;46837;52.446;-1.930;2024-03-02T03:52:07;12.84;;;5.40;;
60641;SDS011;46837;52.446;-1.930;2024-03-02T03:53:07;5.82;;;4.08;;
60641;SDS011;46837;52.446;-1.930;2024-03-02T03:54:07;7.34;;;4.40;;
60641;SDS011;46837;52.446;-1.930;2024-03-02T03:55:08;6.52;;;5.68;;
60641;SDS011;46837;52.446;-1.930;2024-03-02T03:56:07;8.20;;;5.20;;
60641;SDS011;46837;52.446;-1.930;2024-03-02T03:57:07;10.12;;;6.06;;
60641;SDS011;46837;52.446;-1.930;2024-03-02T03:58:07;11.48;;;6.12;;
60641;SDS011;46837;52.446;-1.930;2024-03-02T03:59:07;8.70;;;6.12;;
60641;SDS011;46837;52.446;-1.930;2024-03-02T04:00:07;11.26;;;6.02;;
60641;SDS011;46837;52.446;-1.930;2024-03-02T04:01:07;17.08;;;5.62;;
60641;SDS011;46837;52.446;-1.930;2024-03-02T04:02:07;11.56;;;5.90;;
60641;SDS011;46837;52.446;-1.930;2024-03-02T04:03:07;10.86;;;5.28;;
60641;SDS011;46837;52.446;-1.930;2024-03-02T04:04:07;10.00;;;5.38;;
60641;SDS011;46837;52.446;-1.930;2024-03-02T04:05:09;8.98;;;6.02;;
60641;SDS011;46837;52.446;-1.930;2024-03-02T04:06:07;11.80;;;5.84;;
60641;SDS011;46837;52.446;-1.930;2024-03-02T04:07:07;6.70;;;5.50;;
60641;SDS011;46837;52.446;-1.930;2024-03-02T04:08:07;7.94;;;4.90;;
60641;SDS011;46837;52.446;-1.930;2024-03-02T04:09:07;9.62;;;5.08;;
60641;SDS011;46837;52.446;-1.930;2024-03-02T04:10:08;10.54;;;6.02;;
60641;SDS011;46837;52.446;-1.930;2024-03-02T04:11:08;11.22;;;5.70;;
60641;SDS011;46837;52.446;-1.930;2024-03-02T04:12:07;12.44;;;5.96;;
60641;SDS011;46837;52.446;-1.930;2024-03-02T04:13:07;6.62;;;5.60;;
60641;SDS011;46837;52.446;-1.930;2024-03-02T04:14:07;10.44;;;6.22;;
60641;SDS011;46837;52.446;-1.930;2024-03-02T04:15:07;13.34;;;5.80;;
60641;SDS011;46837;52.446;-1.930;2024-03-02T04:16:07;11.24;;;6.22;;
60641;SDS011;46837;52.446;-1.930;2024-03-02T04:17:07;10.60;;;5.48;;
60641;SDS011;46837;52.446;-1.930;2024-03-02T04:18:07;11.24;;;6.04;;
60641;SDS011;46837;52.446;-1.930;2024-03-02T04:19:07;9.40;;;5.68;;
60641;SDS011;46837;52.446;-1.930;2024-03-02T04:20:07;7.86;;;6.18;;
60641;SDS011;46837;52.446;-1.930;2024-03-02T04:21:07;12.14;;;6.28;;
60641;SDS011;46837;52.446;-1.930;2024-03-02T04:22:07;10.90;;;6.82;;
60641;SDS011;46837;52.446;-1.930;2024-03-02T04:23:07;10.50;;;7.42;;
60641;SDS011;46837;52.446;-1.930;2024-03-02T04:24:07;8.12;;;7.06;;
60641;SDS011;46837;52.446;-1.930;2024-03-02T04:25:07;8.60;;;6.36;;
60641;SDS011;46837;52.446;-1.930;2024-03-02T04:26:07;7.72;;;6.14;;
60641;SDS011;46837;52.446;-1.930;2024-03-02T04:27:07;11.82;;;6.88;;
60641;SDS011;46837;52.446;-1.930;2024-03-02T04:28:07;12.46;;;6.80;;
60641;SDS011;46837;52.446;-1.930;2024-03-02T04:29:07;16.96;;;7.46;;
60641;SDS011;46837;52.446;-1.930;2024-03-02T04:30:07;13.62;;;7.94;;
60641;SDS011;46837;52.446;-1.930;2024-03-02T04:31:07;9.98;;;5.88;;
60641;SDS011;46837;52.446;-1.930;2024-03-02T04:32:07;12.52;;;8.00;;
60641;SDS011;46837;52.446;-1.930;2024-03-02T04:33:08;10.70;;;6.02;;
60641;SDS011;46837;52.446;-1.930;2024-03-02T04:34:07;11.90;;;5.88;;
60641;SDS011;46837;52.446;-1.930;2024-03-02T04:35:07;12.46;;;6.02;;
60641;SDS011;46837;52.446;-1.930;2024-03-02T04:36:07;5.76;;;5.12;;
60641;SDS011;46837;52.446;-1.930;2024-03-02T04:37:07;10.82;;;6.96;;
60641;SDS011;46837;52.446;-1.930;2024-03-02T04:38:07;7.66;;;5.28;;
60641;SDS011;46837;52.446;-1.930;2024-03-02T04:39:09;13.02;;;5.96;;
60641;SDS011;46837;52.446;-1.930;2024-03-02T04:40:09;10.24;;;5.20;;
60641;SDS011;46837;52.446;-1.930;2024-03-02T04:41:09;9.48;;;6.64;;
60641;SDS011;46837;52.446;-1.930;2024-03-02T04:42:07;10.00;;;6.02;;
60641;SDS011;46837;52.446;-1.930;2024-03-02T04:43:07;10.30;;;5.68;;
60641;SDS011;46837;52.446;-1.930;2024-03-02T04:44:07;8.64;;;6.28;;
60641;SDS011;46837;52.446;-1.930;2024-03-02T04:45:07;9.30;;;5.12;;
60641;SDS011;46837;52.446;-1.930;2024-03-02T04:46:07;14.98;;;7.42;;
60641;SDS011;46837;52.446;-1.930;2024-03-02T04:47:07;5.92;;;5.30;;
60641;SDS011;46837;52.446;-1.930;2024-03-02T04:48:07;14.10;;;6.40;;
60641;SDS011;46837;52.446;-1.930;2024-03-02T04:49:07;11.48;;;6.24;;
60641;SDS011;46837;52.446;-1.930;2024-03-02T04:50:07;9.74;;;5.12;;
60641;SDS011;46837;52.446;-1.930;2024-03-02T04:51:07;7.22;;;4.76;;
60641;SDS011;46837;52.446;-1.930;2024-03-02T04:52:07;12.42;;;6.14;;
60641;SDS011;46837;52.446;-1.930;2024-03-02T04:53:07;10.60;;;5.50;;
60641;SDS011;46837;52.446;-1.930;2024-03-02T04:54:07;10.22;;;5.96;;
60641;SDS011;46837;52.446;-1.930;2024-03-02T04:55:11;13.06;;;6.32;;
60641;SDS011;46837;52.446;-1.930;2024-03-02T04:56:11;8.32;;;5.98;;
60641;SDS011;46837;52.446;-1.930;2024-03-02T04:57:07;11.24;;;5.60;;
60641;SDS011;46837;52.446;-1.930;2024-03-02T04:58:07;12.52;;;8.62;;
60641;SDS011;46837;52.446;-1.930;2024-03-02T04:59:07;9.26;;;5.74;;
60641;SDS011;46837;52.446;-1.930;2024-03-02T05:00:08;9.18;;;6.02;;
60641;SDS011;46837;52.446;-1.930;2024-03-02T05:01:07;9.80;;;5.92;;
60641;SDS011;46837;52.446;-1.930;2024-03-02T05:02:07;9.48;;;5.88;;
60641;SDS011;46837;52.446;-1.930;2024-03-02T05:03:07;8.50;;;5.92;;
60641;SDS011;46837;52.446;-1.930;2024-03-02T05:04:07;7.72;;;6.08;;
60641;SDS011;46837;52.446;-1.930;2024-03-02T05:05:07;6.16;;;4.86;;
60641;SDS011;46837;52.446;-1.930;2024-03-02T05:06:07;7.90;;;5.68;;
60641;SDS011;46837;52.446;-1.930;2024-03-02T05:07:07;16.90;;;6.46;;
60641;SDS011;46837;52.446;-1.930;2024-03-02T05:08:07;13.30;;;6.12;;
60641;SDS011;46837;52.446;-1.930;2024-03-02T05:09:07;9.96;;;6.02;;
60641;SDS011;46837;52.446;-1.930;2024-03-02T05:10:07;10.76;;;7.72;;
60641;SDS011;46837;52.446;-1.930;2024-03-02T05:11:11;14.94;;;7.52;;
60641;SDS011;46837;52.446;-1.930;2024-03-02T05:12:11;13.92;;;7.12;;
60641;SDS011;46837;52.446;-1.930;2024-03-02T05:13:07;14.62;;;7.32;;
60641;SDS011;46837;52.446;-1.930;2024-03-02T05:14:07;10.72;;;6.94;;
60641;SDS011;46837;52.446;-1.930;2024-03-02T05:15:07;12.74;;;7.46;;
60641;SDS011;46837;52.446;-1.930;2024-03-02T05:16:07;12.80;;;7.20;;
60641;SDS011;46837;52.446;-1.930;2024-03-02T05:17:07;10.40;;;6.44;;
60641;SDS011;46837;52.446;-1.930;2024-03-02T05:18:07;11.82;;;7.22;;
60641;SDS011;46837;52.446;-1.930;2024-03-02T05:19:07;13.34;;;7.16;;
60641;SDS011;46837;52.446;-1.930;2024-03-02T05:20:07;16.82;;;7.50;;
60641;SDS011;46837;52.446;-1.930;2024-03-02T05:21:07;16.16;;;7.74;;
60641;SDS011;46837;52.446;-1.930;2024-03-02T05:22:07;12.72;;;8.68;;
60641;SDS011;46837;52.446;-1.930;2024-03-02T05:23:07;14.06;;;8.06;;
60641;SDS011;46837;52.446;-1.930;2024-03-02T05:24:07;18.08;;;8.12;;
60641;SDS011;46837;52.446;-1.930;2024-03-02T05:25:07;15.48;;;7.16;;
60641;SDS011;46837;52.446;-1.930;2024-03-02T05:26:07;12.72;;;7.66;;
60641;SDS011;46837;52.446;-1.930;2024-03-02T05:27:07;14.10;;;7.34;;
60641;SDS011;46837;52.446;-1.930;2024-03-02T05:28:07;14.24;;;7.78;;
60641;SDS011;46837;52.446;-1.930;2024-03-02T05:29:07;13.46;;;8.52;;
60641;SDS011;46837;52.446;-1.930;2024-03-02T05:30:07;9.96;;;7.38;;
60641;SDS011;46837;52.446;-1.930;2024-03-02T05:31:09;16.58;;;8.82;;
60641;SDS011;46837;52.446;-1.930;2024-03-02T05:32:07;15.90;;;7.86;;
60641;SDS011;46837;52.446;-1.930;2024-03-02T05:33:07;11.84;;;7.48;;
60641;SDS011;46837;52.446;-1.930;2024-03-02T05:34:07;10.12;;;6.52;;
60641;SDS011;46837;52.446;-1.930;2024-03-02T05:35:07;14.60;;;7.74;;
60641;SDS011;46837;52.446;-1.930;2024-03-02T05:36:07;14.48;;;7.36;;
60641;SDS011;46837;52.446;-1.930;2024-03-02T05:37:07;11.26;;;7.68;;
60641;SDS011;46837;52.446;-1.930;2024-03-02T05:38:07;9.66;;;6.68;;
60641;SDS011;46837;52.446;-1.930;2024-03-02T05:39:09;12.00;;;7.30;;
60641;SDS011;46837;52.446;-1.930;2024-03-02T05:40:07;12.14;;;7.18;;
60641;SDS011;46837;52.446;-1.930;2024-03-02T05:41:07;8.72;;;5.58;;
60641;SDS011;46837;52.446;-1.930;2024-03-02T05:42:07;7.64;;;5.08;;
60641;SDS011;46837;52.446;-1.930;2024-03-02T05:43:07;8.46;;;5.52;;
60641;SDS011;46837;52.446;-1.930;2024-03-02T05:44:07;6.82;;;3.28;;
60641;SDS011;46837;52.446;-1.930;2024-03-02T05:45:07;11.34;;;3.18;;
60641;SDS011;46837;52.446;-1.930;2024-03-02T05:46:07;5.06;;;3.30;;
60641;SDS011;46837;52.446;-1.930;2024-03-02T05:47:07;3.06;;;2.70;;
60641;SDS011;46837;52.446;-1.930;2024-03-02T05:48:07;4.88;;;2.74;;
60641;SDS011;46837;52.446;-1.930;2024-03-02T05:49:07;3.64;;;1.64;;
60641;SDS011;46837;52.446;-1.930;2024-03-02T05:50:07;3.90;;;1.78;;
60641;SDS011;46837;52.446;-1.930;2024-03-02T05:51:07;14.28;;;4.98;;
60641;SDS011;46837;52.446;-1.930;2024-03-02T05:52:07;3.30;;;2.14;;
60641;SDS011;46837;52.446;-1.930;2024-03-02T05:53:07;2.18;;;1.92;;
60641;SDS011;46837;52.446;-1.930;2024-03-02T05:54:07;3.74;;;1.98;;
60641;SDS011;46837;52.446;-1.930;2024-03-02T05:55:07;2.28;;;1.82;;
60641;SDS011;46837;52.446;-1.930;2024-03-02T05:56:07;2.84;;;2.00;;
60641;SDS011;46837;52.446;-1.930;2024-03-02T05:57:11;3.18;;;2.24;;
60641;SDS011;46837;52.446;-1.930;2024-03-02T05:58:11;3.32;;;2.30;;
60641;SDS011;46837;52.446;-1.930;2024-03-02T05:59:11;4.20;;;2.24;;